createdAt,value
2019-01-10T00:02:18.134Z,96576.22
2019-01-10T00:04:45.088Z,96570.38
2019-01-10T00:07:12.740Z,96574.11
2019-01-10T00:09:39.356Z,96569.55
2019-01-10T00:12:06.448Z,96575.08
2019-01-10T00:14:33.491Z,96575.25
2019-01-10T00:17:00.133Z,96574.30
2019-01-10T00:19:27.023Z,96569.41
2019-01-10T00:21:53.674Z,96570.07
2019-01-10T00:24:20.525Z,96574.61
2019-01-10T00:26:47.203Z,96576.22
2019-01-10T00:29:14.084Z,96580.28
2019-01-10T00:31:40.680Z,96582.71
2019-01-10T00:34:07.584Z,96590.17
2019-01-10T00:36:34.450Z,96590.48
2019-01-10T00:39:01.286Z,96595.02
2019-01-10T00:41:28.258Z,96596.16
2019-01-10T00:43:58.161Z,96598.79
2019-01-10T00:46:24.754Z,96605.28
2019-01-10T00:48:51.434Z,96608.84
2019-01-10T00:51:20.338Z,96613.41
2019-01-10T00:53:54.679Z,96610.97
2019-01-10T00:56:20.460Z,96612.77
2019-01-10T00:58:47.408Z,96625.39
2019-01-10T01:01:14.264Z,96618.58
2019-01-10T01:03:41.045Z,96624.11
2019-01-10T01:06:07.655Z,96622.50
2019-01-10T01:08:34.535Z,96628.62
2019-01-10T01:11:11.417Z,96631.02
2019-01-10T01:13:37.742Z,96632.28
2019-01-10T01:16:04.652Z,96638.56
2019-01-10T01:18:31.277Z,96639.36
2019-01-10T01:21:02.878Z,96643.08
2019-01-10T01:23:26.235Z,96644.02
2019-01-10T01:25:52.939Z,96647.10
2019-01-10T01:28:19.804Z,96642.36
2019-01-10T01:30:59.494Z,96652.91
2019-01-10T01:33:25.851Z,96650.83
2019-01-10T01:35:53.216Z,96654.89
2019-01-10T01:38:20.005Z,96655.87
2019-01-10T01:40:47.034Z,96651.45
2019-01-10T01:43:14.189Z,96654.66
2019-01-10T01:45:41.590Z,96658.78
2019-01-10T01:48:08.991Z,96657.53
2019-01-10T01:50:35.876Z,96663.66
2019-01-10T01:53:04.407Z,96668.30
2019-01-10T01:55:31.396Z,96669.34
2019-01-10T01:57:58.403Z,96668.86
2019-01-10T02:00:25.841Z,96671.94
2019-01-10T02:02:52.498Z,96678.30
2019-01-10T02:05:19.753Z,96684.83
2019-01-10T02:07:46.331Z,96678.52
2019-01-10T02:10:13.213Z,96681.42
2019-01-10T02:12:41.555Z,96681.81
2019-01-10T02:15:10.058Z,96684.48
2019-01-10T02:17:36.994Z,96686.77
2019-01-10T02:20:03.619Z,96693.19
2019-01-10T02:22:30.565Z,96692.84
2019-01-10T02:24:57.393Z,96696.28
2019-01-10T02:27:24.539Z,96692.84
2019-01-10T02:29:51.370Z,96695.25
2019-01-10T02:32:18.334Z,96695.08
2019-01-10T02:34:45.747Z,96694.31
2019-01-10T02:37:12.417Z,96690.84
2019-01-10T02:39:39.056Z,96689.70
2019-01-10T02:42:06.519Z,96689.02
2019-01-10T02:44:33.394Z,96688.38
2019-01-10T02:47:02.131Z,96693.92
2019-01-10T02:49:28.704Z,96683.67
2019-01-10T02:51:55.575Z,96692.73
2019-01-10T02:54:22.726Z,96687.86
2019-01-10T02:56:49.824Z,96682.38
2019-01-10T02:59:16.667Z,96686.59
2019-01-10T03:01:43.378Z,96682.84
2019-01-10T03:04:11.253Z,96690.98
2019-01-10T03:06:37.877Z,96681.25
2019-01-10T03:09:04.763Z,96681.11
2019-01-10T03:11:33.368Z,96680.96
2019-01-10T03:13:59.952Z,96685.19
2019-01-10T03:16:27.039Z,96681.06
2019-01-10T03:18:53.786Z,96680.80
2019-01-10T03:21:20.428Z,96680.20
2019-01-10T03:23:47.337Z,96679.22
2019-01-10T03:26:13.953Z,96684.70
2019-01-10T03:28:42.549Z,96679.64
2019-01-10T03:31:09.183Z,96683.53
2019-01-10T03:33:35.941Z,96685.05
2019-01-10T03:36:02.854Z,96682.84
2019-01-10T03:38:29.538Z,96679.46
2019-01-10T03:40:56.114Z,96687.08
2019-01-10T03:43:22.996Z,96684.52
2019-01-10T03:45:50.196Z,96689.70
2019-01-10T03:48:17.019Z,96682.77
2019-01-10T03:50:43.657Z,96687.78
2019-01-10T03:53:11.777Z,96690.00
2019-01-10T03:55:38.416Z,96694.53
2019-01-10T03:58:05.047Z,96694.48
2019-01-10T04:00:31.726Z,96698.10
2019-01-10T04:02:58.347Z,96701.54
2019-01-10T04:05:25.245Z,96701.11
2019-01-10T04:07:52.477Z,96703.04
2019-01-10T04:10:19.222Z,96699.78
2019-01-10T04:12:46.454Z,96707.41
2019-01-10T04:15:13.549Z,96708.81
2019-01-10T04:17:40.251Z,96717.05
2019-01-10T04:20:07.165Z,96717.19
2019-01-10T04:22:34.168Z,96722.06
2019-01-10T04:25:00.838Z,96724.63
2019-01-10T04:27:28.188Z,96724.63
2019-01-10T04:29:54.848Z,96720.31
2019-01-10T04:32:21.743Z,96720.95
2019-01-10T04:34:49.744Z,96724.66
2019-01-10T04:37:17.173Z,96728.07
2019-01-10T04:39:44.019Z,96733.94
2019-01-10T04:42:12.154Z,96732.64
2019-01-10T04:44:39.562Z,96731.47
2019-01-10T04:47:08.388Z,96734.69
2019-01-10T04:49:39.485Z,96744.77
2019-01-10T04:52:09.790Z,96750.23
2019-01-10T04:54:38.888Z,96750.55
2019-01-10T04:59:53.968Z,96760.56
2019-01-10T05:02:27.209Z,96765.31
2019-01-10T05:07:39.360Z,96767.28
2019-01-10T05:10:06.624Z,96764.45
2019-01-10T05:12:34.101Z,96768.09
2019-01-10T05:15:16.891Z,96772.13
2019-01-10T05:17:48.316Z,96769.97
2019-01-10T05:20:24.327Z,96777.58
2019-01-10T05:23:09.942Z,96781.09
2019-01-10T05:25:54.622Z,96784.13
2019-01-10T05:28:22.782Z,96784.69
2019-01-10T05:30:49.609Z,96792.73
2019-01-10T05:33:18.348Z,96796.56
2019-01-10T05:38:32.701Z,96795.27
2019-01-10T05:41:03.255Z,96792.34
2019-01-10T05:43:29.910Z,96798.67
2019-01-10T05:45:58.478Z,96796.80
2019-01-10T05:48:26.783Z,96800.45
2019-01-10T05:51:11.727Z,96811.06
2019-01-10T05:53:42.408Z,96815.73
2019-01-10T05:56:15.653Z,96812.42
2019-01-10T05:58:44.543Z,96815.91
2019-01-10T06:01:11.110Z,96814.62
2019-01-10T06:03:40.340Z,96821.86
2019-01-10T06:06:09.926Z,96820.20
2019-01-10T06:08:36.319Z,96819.52
2019-01-10T06:11:03.879Z,96818.38
2019-01-10T06:13:32.148Z,96825.41
2019-01-10T06:15:59.356Z,96827.61
2019-01-10T06:18:26.264Z,96824.69
2019-01-10T06:20:53.199Z,96836.38
2019-01-10T06:23:23.152Z,96841.87
2019-01-10T06:25:50.839Z,96839.60
2019-01-10T06:28:23.246Z,96852.45
2019-01-10T06:30:50.363Z,96853.05
2019-01-10T06:33:18.029Z,96861.70
2019-01-10T06:35:45.393Z,96852.90
2019-01-10T06:38:14.462Z,96854.64
2019-01-10T06:40:41.369Z,96859.53
2019-01-10T06:43:08.574Z,96868.26
2019-01-10T06:45:35.375Z,96866.20
2019-01-10T06:48:02.593Z,96877.02
2019-01-10T06:50:29.610Z,96880.31
2019-01-10T06:52:57.329Z,96883.63
2019-01-10T06:55:24.743Z,96883.66
2019-01-10T06:57:53.099Z,96886.45
2019-01-10T07:00:19.743Z,96886.02
2019-01-10T07:02:46.879Z,96888.37
2019-01-10T07:05:14.234Z,96899.68
2019-01-10T07:07:40.899Z,96900.00
2019-01-10T07:10:09.269Z,96901.28
2019-01-10T07:12:35.937Z,96907.33
2019-01-10T07:15:02.658Z,96899.02
2019-01-10T07:17:31.550Z,96903.91
2019-01-10T07:19:58.170Z,96914.40
2019-01-10T07:22:24.934Z,96909.64
2019-01-10T07:24:51.830Z,96919.03
2019-01-10T07:27:19.495Z,96923.49
2019-01-10T07:29:46.393Z,96919.48
2019-01-10T07:32:14.274Z,96918.88
2019-01-10T07:34:41.173Z,96923.14
2019-01-10T07:37:13.083Z,96924.56
2019-01-10T07:39:37.791Z,96931.17
2019-01-10T07:42:04.402Z,96934.14
2019-01-10T07:44:32.578Z,96933.20
2019-01-10T07:46:59.465Z,96938.53
2019-01-10T07:49:26.847Z,96942.16
2019-01-10T07:51:54.820Z,96947.41
2019-01-10T07:54:21.768Z,96948.16
2019-01-10T07:56:48.431Z,96951.39
2019-01-10T07:59:15.902Z,96964.92
2019-01-10T08:01:44.321Z,96955.25
2019-01-10T08:04:11.921Z,96956.20
2019-01-10T08:06:39.419Z,96967.50
2019-01-10T08:09:06.507Z,96969.95
2019-01-10T08:11:35.137Z,96971.81
2019-01-10T08:14:03.950Z,96969.42
2019-01-10T08:16:30.558Z,96977.45
2019-01-10T08:18:57.223Z,96988.58
2019-01-10T08:21:24.151Z,96984.76
2019-01-10T08:23:50.776Z,96992.88
2019-01-10T08:26:17.665Z,96997.15
2019-01-10T08:28:44.713Z,96996.22
2019-01-10T08:31:11.303Z,97003.88
2019-01-10T08:33:37.909Z,97003.38
2019-01-10T08:36:06.068Z,97005.34
2019-01-10T08:38:34.672Z,97009.73
2019-01-10T08:41:01.405Z,97016.73
2019-01-10T08:43:28.172Z,97019.03
2019-01-10T08:45:55.233Z,97018.78
2019-01-10T08:48:22.101Z,97028.74
2019-01-10T08:50:49.356Z,97030.30
2019-01-10T08:53:18.053Z,97038.64
2019-01-10T08:55:44.883Z,97038.13
2019-01-10T08:58:16.554Z,97044.03
2019-01-10T09:00:44.858Z,97054.08
2019-01-10T09:03:13.287Z,97053.25
2019-01-10T09:05:40.748Z,97052.28
2019-01-10T09:08:15.294Z,97055.97
2019-01-10T09:13:34.823Z,97055.75
2019-01-10T09:18:52.186Z,97070.73
2019-01-10T09:26:50.458Z,97076.48
2019-01-10T09:29:17.957Z,97085.48
2019-01-10T09:31:45.375Z,97088.72
2019-01-10T09:34:12.310Z,97091.24
2019-01-10T09:36:39.993Z,97092.14
2019-01-10T09:39:07.220Z,97090.48
2019-01-10T09:41:36.679Z,97090.16
2019-01-10T09:44:08.630Z,97090.56
2019-01-10T09:46:39.500Z,97091.03
2019-01-10T09:49:14.947Z,97086.95
2019-01-10T09:51:39.756Z,97088.42
2019-01-10T09:54:09.441Z,97091.24
2019-01-10T09:56:36.835Z,97090.63
2019-01-10T09:59:06.525Z,97092.98
2019-01-10T10:01:33.586Z,97095.46
2019-01-10T10:04:04.206Z,97088.66
2019-01-10T10:06:42.401Z,97092.98
2019-01-10T10:09:16.879Z,97093.59
2019-01-10T10:11:44.822Z,97092.43
2019-01-10T10:14:14.148Z,97097.30
2019-01-10T10:16:43.843Z,97093.58
2019-01-10T10:19:15.833Z,97085.54
2019-01-10T10:21:40.209Z,97085.47
2019-01-10T10:24:33.044Z,97083.66
2019-01-10T10:27:02.040Z,97078.34
2019-01-10T10:29:43.275Z,97088.60
2019-01-10T10:32:10.331Z,97089.77
2019-01-10T10:34:39.288Z,97087.30
2019-01-10T10:37:06.719Z,97089.11
2019-01-10T10:42:24.063Z,97070.77
2019-01-10T11:01:56.212Z,97077.60
2019-01-10T11:13:19.157Z,97060.69
2019-01-10T11:18:38.693Z,97061.73
2019-01-10T11:29:44.752Z,97057.09
2019-01-10T11:35:08.626Z,97047.92
2019-01-10T11:42:51.738Z,97041.08
2019-01-10T11:45:18.750Z,97037.66
2019-01-10T11:47:47.140Z,97041.94
2019-01-10T11:50:13.901Z,97042.02
2019-01-10T11:52:40.697Z,97037.95
2019-01-10T11:55:07.305Z,97033.70
2019-01-10T11:57:33.952Z,97030.41
2019-01-10T12:00:00.852Z,97029.16
2019-01-10T12:02:36.079Z,97031.58
2019-01-10T12:04:55.871Z,97024.38
2019-01-10T12:07:23.030Z,97015.86
2019-01-10T12:09:49.909Z,97029.24
2019-01-10T12:12:17.330Z,97028.05
2019-01-10T12:14:44.016Z,97022.05
2019-01-10T12:17:13.823Z,97018.45
2019-01-10T12:19:40.492Z,97024.39
2019-01-10T12:22:07.074Z,97021.30
2019-01-10T12:24:33.724Z,97013.90
2019-01-10T12:27:03.934Z,97020.70
2019-01-10T12:29:36.140Z,97020.22
2019-01-10T12:31:59.146Z,97013.06
2019-01-10T12:34:25.864Z,97023.73
2019-01-10T12:37:00.233Z,97022.53
2019-01-10T12:39:21.246Z,97014.96
2019-01-10T12:41:47.988Z,97020.95
2019-01-10T12:44:14.627Z,97022.05
2019-01-10T12:46:42.018Z,97025.34
2019-01-10T12:49:08.698Z,97028.73
2019-01-10T12:51:35.327Z,97027.94
2019-01-10T12:54:01.953Z,97027.91
2019-01-10T12:56:28.589Z,97029.09
2019-01-10T12:58:55.384Z,97030.38
2019-01-10T13:01:22.037Z,97034.70
2019-01-10T13:03:48.838Z,97025.97
2019-01-10T13:06:15.474Z,97027.25
2019-01-10T13:08:42.078Z,97027.12
2019-01-10T13:11:08.692Z,97021.39
2019-01-10T13:13:35.617Z,97025.24
2019-01-10T13:16:02.534Z,97029.30
2019-01-10T13:18:29.520Z,97033.55
2019-01-10T13:20:56.164Z,97032.66
2019-01-10T13:23:22.790Z,97036.69
2019-01-10T13:25:49.654Z,97031.56
2019-01-10T13:28:18.041Z,97040.03
2019-01-10T13:30:44.736Z,97038.10
2019-01-10T13:33:11.668Z,97038.08
2019-01-10T13:35:38.338Z,97039.64
2019-01-10T13:38:05.238Z,97046.89
2019-01-10T13:40:31.884Z,97041.01
2019-01-10T13:42:58.759Z,97044.83
2019-01-10T13:45:25.380Z,97044.77
2019-01-10T13:47:53.703Z,97048.42
2019-01-10T13:50:20.328Z,97047.94
2019-01-10T13:52:48.192Z,97054.38
2019-01-10T13:55:14.913Z,97057.71
2019-01-10T13:57:43.344Z,97043.28
2019-01-10T14:00:09.975Z,97055.88
2019-01-10T14:02:37.010Z,97057.83
2019-01-10T14:05:03.909Z,97058.97
2019-01-10T14:07:32.720Z,97050.25
2019-01-10T14:09:59.320Z,97060.29
2019-01-10T14:12:25.923Z,97055.69
2019-01-10T14:14:52.537Z,97059.00
2019-01-10T14:17:21.722Z,97065.39
2019-01-10T14:19:48.467Z,97058.41
2019-01-10T14:22:15.092Z,97064.42
2019-01-10T14:24:42.012Z,97067.69
2019-01-10T14:27:08.633Z,97071.73
2019-01-10T14:29:35.236Z,97068.52
2019-01-10T14:32:02.144Z,97078.49
2019-01-10T14:34:28.770Z,97080.88
2019-01-10T14:36:55.388Z,97086.20
2019-01-10T14:39:22.176Z,97084.69
2019-01-10T14:41:48.812Z,97089.71
2019-01-10T14:44:15.434Z,97089.91
2019-01-10T14:46:42.306Z,97095.31
2019-01-10T14:49:09.310Z,97101.84
2019-01-10T14:51:36.242Z,97103.17
2019-01-10T14:54:02.954Z,97105.03
2019-01-10T14:56:29.576Z,97107.66
2019-01-10T14:58:56.463Z,97114.43
2019-01-10T15:01:23.444Z,97121.59
2019-01-10T15:03:50.319Z,97116.58
2019-01-10T15:06:18.162Z,97122.94
2019-01-10T15:08:44.916Z,97135.17
2019-01-10T15:11:11.522Z,97136.84
2019-01-10T15:13:38.157Z,97133.33
2019-01-10T15:16:04.776Z,97142.86
2019-01-10T15:18:34.103Z,97147.20
2019-01-10T15:21:00.710Z,97155.01
2019-01-10T15:23:28.002Z,97149.59
2019-01-10T15:25:54.869Z,97158.09
2019-01-10T15:28:23.539Z,97157.76
2019-01-10T15:30:50.163Z,97164.14
2019-01-10T15:33:16.822Z,97170.22
2019-01-10T15:35:43.901Z,97170.55
2019-01-10T15:38:14.005Z,97176.22
2019-01-10T15:40:40.804Z,97174.31
2019-01-10T15:43:07.833Z,97185.63
2019-01-10T15:45:34.838Z,97190.21
2019-01-10T15:48:01.708Z,97189.97
2019-01-10T15:50:28.493Z,97194.98
2019-01-10T15:52:55.201Z,97194.55
2019-01-10T15:55:21.986Z,97202.14
2019-01-10T15:57:49.320Z,97208.56
2019-01-10T16:00:15.954Z,97207.68
2019-01-10T16:02:42.588Z,97213.14
2019-01-10T16:05:09.181Z,97213.95
2019-01-10T16:07:36.044Z,97213.41
2019-01-10T16:10:02.746Z,97217.67
2019-01-10T16:12:29.395Z,97219.72
2019-01-10T16:14:56.106Z,97218.49
2019-01-10T16:17:25.626Z,97223.59
2019-01-10T16:19:51.172Z,97226.55
2019-01-10T16:22:19.582Z,97232.95
2019-01-10T16:24:46.246Z,97238.88
2019-01-10T16:27:12.826Z,97240.00
2019-01-10T16:29:39.517Z,97251.05
2019-01-10T16:32:06.287Z,97252.93
2019-01-10T16:34:32.904Z,97256.70
2019-01-10T16:36:59.504Z,97261.77
2019-01-10T16:39:26.298Z,97272.02
2019-01-10T16:41:52.932Z,97278.01
2019-01-10T16:44:19.799Z,97275.84
2019-01-10T16:46:46.436Z,97275.45
2019-01-10T16:49:14.189Z,97276.91
2019-01-10T16:51:40.857Z,97274.64
2019-01-10T16:54:07.468Z,97283.66
2019-01-10T16:56:34.112Z,97289.20
2019-01-10T16:59:03.490Z,97289.53
2019-01-10T17:01:30.183Z,97292.80
2019-01-10T17:03:56.795Z,97291.51
2019-01-10T17:06:23.513Z,97295.09
2019-01-10T17:08:52.550Z,97307.16
2019-01-10T17:11:19.942Z,97304.21
2019-01-10T17:13:46.904Z,97312.39
2019-01-10T17:16:15.046Z,97311.12
2019-01-10T17:18:41.675Z,97316.18
2019-01-10T17:21:08.337Z,97308.84
2019-01-10T17:23:34.923Z,97315.35
2019-01-10T17:26:01.769Z,97319.77
2019-01-10T17:28:28.735Z,97327.75
2019-01-10T17:30:55.461Z,97318.94
2019-01-10T17:33:22.194Z,97330.05
2019-01-10T17:35:50.466Z,97330.70
2019-01-10T17:38:17.333Z,97335.28
2019-01-10T17:40:44.016Z,97342.78
2019-01-10T17:43:10.926Z,97347.66
2019-01-10T17:45:37.833Z,97345.38
2019-01-10T17:48:04.484Z,97348.99
2019-01-10T17:50:31.417Z,97350.77
2019-01-10T17:52:58.173Z,97353.90
2019-01-10T17:55:25.074Z,97356.66
2019-01-10T17:57:51.990Z,97353.23
2019-01-10T18:00:23.606Z,97347.72
2019-01-10T18:02:52.538Z,97350.65
2019-01-10T18:05:20.482Z,97347.39
2019-01-10T18:07:47.245Z,97348.36
2019-01-10T18:10:14.081Z,97349.02
2019-01-10T18:12:40.674Z,97350.80
2019-01-10T18:15:07.319Z,97349.00
2019-01-10T18:17:34.220Z,97351.94
2019-01-10T18:20:02.217Z,97357.97
2019-01-10T18:22:28.834Z,97358.14
2019-01-10T18:24:55.481Z,97361.72
2019-01-10T18:27:22.392Z,97360.44
2019-01-10T18:29:51.569Z,97367.27
2019-01-10T18:32:18.496Z,97368.91
2019-01-10T18:34:45.115Z,97368.42
2019-01-10T18:37:11.716Z,97371.20
2019-01-10T18:39:40.614Z,97377.90
2019-01-10T18:42:07.561Z,97379.02
2019-01-10T18:44:34.149Z,97373.63
2019-01-10T18:47:00.764Z,97385.23
2019-01-10T18:49:27.662Z,97377.89
2019-01-10T18:51:55.653Z,97382.77
2019-01-10T18:54:22.656Z,97383.44
2019-01-10T18:56:50.531Z,97382.61
2019-01-10T18:59:17.146Z,97392.56
2019-01-10T19:01:43.786Z,97391.55
2019-01-10T19:04:10.392Z,97395.56
2019-01-10T19:06:36.998Z,97392.31
2019-01-10T19:09:06.279Z,97396.42
2019-01-10T19:11:33.973Z,97398.75
2019-01-10T19:14:03.077Z,97392.71
2019-01-10T19:16:29.908Z,97396.75
2019-01-10T19:18:58.882Z,97393.01
2019-01-10T19:21:26.500Z,97402.75
2019-01-10T19:23:53.132Z,97402.92
2019-01-10T19:26:21.413Z,97410.58
2019-01-10T19:28:48.080Z,97407.44
2019-01-10T19:31:14.685Z,97407.58
2019-01-10T19:33:41.318Z,97405.15
2019-01-10T19:36:09.175Z,97411.22
2019-01-10T19:38:36.099Z,97411.94
2019-01-10T19:41:06.396Z,97421.91
2019-01-10T19:43:31.343Z,97421.78
2019-01-10T19:45:59.167Z,97427.39
2019-01-10T19:48:28.480Z,97424.75
2019-01-10T19:50:58.468Z,97425.98
2019-01-10T19:53:26.358Z,97431.16
2019-01-10T19:55:54.325Z,97435.52
2019-01-10T19:58:22.717Z,97430.66
2019-01-10T20:00:49.358Z,97427.42
2019-01-10T20:03:16.288Z,97424.98
2019-01-10T20:05:42.874Z,97418.38
2019-01-10T20:08:09.520Z,97420.49
2019-01-10T20:10:38.981Z,97426.97
2019-01-10T20:13:06.733Z,97424.98
2019-01-10T20:15:35.810Z,97421.59
2019-01-10T20:18:02.585Z,97435.19
2019-01-10T20:20:42.024Z,97433.20
2019-01-10T20:23:08.623Z,97434.14
2019-01-10T20:25:37.538Z,97433.52
2019-01-10T20:28:03.895Z,97435.94
2019-01-10T20:30:30.554Z,97428.03
2019-01-10T20:32:57.579Z,97427.05
2019-01-10T20:35:24.172Z,97433.08
2019-01-10T20:37:52.051Z,97434.95
2019-01-10T20:40:18.715Z,97427.94
2019-01-10T20:42:45.616Z,97423.77
2019-01-10T20:45:12.220Z,97421.23
2019-01-10T20:47:38.857Z,97426.69
2019-01-10T20:50:05.764Z,97419.41
2019-01-10T20:52:32.929Z,97424.17
2019-01-10T20:55:00.165Z,97415.58
2019-01-10T20:57:26.964Z,97422.92
2019-01-10T20:59:54.805Z,97431.33
2019-01-10T21:02:22.047Z,97434.06
2019-01-10T21:04:48.885Z,97426.97
2019-01-10T21:07:16.735Z,97425.03
2019-01-10T21:09:43.431Z,97433.58
2019-01-10T21:12:10.014Z,97424.94
2019-01-10T21:14:37.393Z,97432.06
2019-01-10T21:17:04.087Z,97437.81
2019-01-10T21:19:30.653Z,97438.80
2019-01-10T21:22:04.102Z,97437.31
2019-01-10T21:24:30.444Z,97446.31
2019-01-10T21:26:57.098Z,97444.70
2019-01-10T21:29:23.702Z,97445.50
2019-01-10T21:31:51.705Z,97453.11
2019-01-10T21:34:18.299Z,97455.36
2019-01-10T21:36:47.339Z,97455.22
2019-01-10T21:39:13.761Z,97460.09
2019-01-10T21:41:40.994Z,97453.28
2019-01-10T21:44:07.605Z,97463.37
2019-01-10T21:46:34.332Z,97461.79
2019-01-10T21:49:00.917Z,97467.14
2019-01-10T21:51:38.117Z,97460.03
2019-01-10T21:54:04.726Z,97464.35
2019-01-10T21:56:31.406Z,97468.53
2019-01-10T21:58:58.010Z,97471.06
2019-01-10T22:01:27.688Z,97458.01
2019-01-10T22:03:54.596Z,97463.37
2019-01-10T22:06:23.936Z,97458.28
2019-01-10T22:08:50.549Z,97460.80
2019-01-10T22:11:17.395Z,97466.06
2019-01-10T22:13:43.995Z,97464.38
2019-01-10T22:16:10.740Z,97461.06
2019-01-10T22:18:41.478Z,97461.20
2019-01-10T22:21:05.924Z,97460.64
2019-01-10T22:23:32.705Z,97459.10
2019-01-10T22:25:59.586Z,97459.72
2019-01-10T22:28:26.207Z,97458.48
2019-01-10T22:30:53.141Z,97471.11
2019-01-10T22:33:19.756Z,97467.45
2019-01-10T22:35:46.608Z,97469.63
2019-01-10T22:38:14.305Z,97468.20
2019-01-10T22:40:40.992Z,97471.13
2019-01-10T22:43:08.050Z,97476.61
2019-01-10T22:45:34.814Z,97481.94
2019-01-10T22:48:01.423Z,97475.83
2019-01-10T22:50:29.049Z,97479.06
2019-01-10T22:52:58.423Z,97481.78
2019-01-10T22:55:25.057Z,97483.58
2019-01-10T22:57:53.348Z,97483.41
2019-01-10T23:00:20.030Z,97485.58
2019-01-10T23:02:47.572Z,97486.59
2019-01-10T23:05:14.189Z,97481.73
2019-01-10T23:07:41.072Z,97484.30
2019-01-10T23:10:07.683Z,97486.97
2019-01-10T23:12:37.348Z,97488.78
2019-01-10T23:15:04.212Z,97495.86
2019-01-10T23:17:31.085Z,97493.86
2019-01-10T23:19:58.730Z,97496.02
2019-01-10T23:22:26.429Z,97491.74
2019-01-10T23:24:53.687Z,97494.14
2019-01-10T23:27:20.328Z,97500.89
2019-01-10T23:29:47.010Z,97497.69
2019-01-10T23:32:23.422Z,97500.69
2019-01-10T23:34:50.013Z,97500.17
2019-01-10T23:37:16.588Z,97499.69
2019-01-10T23:39:43.410Z,97505.83
2019-01-10T23:42:10.135Z,97509.20
2019-01-10T23:44:36.776Z,97506.16
2019-01-10T23:47:03.502Z,97502.70
2019-01-10T23:49:30.096Z,97503.61
2019-01-10T23:51:56.839Z,97504.20
2019-01-10T23:54:23.969Z,97505.71
2019-01-10T23:56:50.593Z,97510.70
2019-01-10T23:59:17.215Z,97505.54
